Catano, PR (00962)

11:29 PM AST on September 20, 2014 (GMT -0400)
WP3W-WX @ Levittown | Change Station
CLOSE
Current Station
Personal Weather Station
Location: Toa Baja, PR
Elevation: 10 ft
Nearby Weather Stations

Elev 10 ft 18.44 °N, 66.17 °W | Updated 14 minutes ago

Partly Cloudy
Partly Cloudy
81.5 °F
Feels Like 87 °F
N
1.1
Wind Variable Wind from ESE

Today
High -- | Low -- °F
--% Chance of Precip.
Yesterday
High -- | Low -- °F
Precip. -- in
6:13 AM 6:22 PM
Waning Crescent, 9% visible
Pressure 30.01 in
Visibility 10.0 miles
Clouds Few 2400 ft
Heat Index 87 °F
Dew Point 74 °F
Humidity 78%
Rainfall 0.43 in
Snow Depth Not available.
UV 0 out of 12
Pollen Not available.
Air Quality Not available.
Flu Activity Not available.
METAR TJSJ 210256Z 10003KT 10SM FEW024 27/24 A3001 RMK AO2 SLP163 T02720239 50009 $

More Conditions Fewer Conditions

Pressure 30.01 in
Visibility 10.0 miles
Clouds Few 2400 ft
Heat Index 87 °F
Dew Point 74 °F
Humidity 78%
Rainfall 0.43 in
Snow Depth Not available.
UV 0 out of 12
Pollen Not available.
Air Quality Not available.
Flu Activity Not available.
METAR TJSJ 210256Z 10003KT 10SM FEW024 27/24 A3001 RMK AO2 SLP163 T02720239 50009 $

More Conditions Fewer Conditions

10-Day Weather Forecast

Almanac

Astronomy

Sep. 20, 2014 Rise Set
Actual Time 6:13 AM AST 6:22 PM AST
Civil Twilight 5:51 AM AST 6:44 PM AST
Nautical Twilight 5:25 AM AST 7:09 PM AST
Astronomical Twilight 5:00 AM AST 7:35 PM AST
Moon 3:11 AM AST (9/20) 4:04 PM AST (9/20)
Length of Visible Light 12h 52m
Length of Day
12h 09m
Tomorrow will be 1m 3s shorter.
Waning Crescent, 9% of the Moon is Illuminated
Today
Waning Crescent
Sep 24
New
Oct 1
First Quarter
Oct 8
Full
Oct 15
Last Quarter

Community

WunderPhotos

Upload Photos

1,755,070 photos uploaded!

WunderBlogs® & News

Nearby

Snow Depth

Station Depth Elevation
No new snow has been reported.

Earthquake Activity

City Distance Mag. Time & Date
No recent earthquake activity has been reported nearby.
Minimum magnitude displayed is 2.5.

Coastal Water Temperatures

Place Temperature
San Juan, PR 84.9 °F
Mayaguez, PR 84.0 °F
Esperanza, PR 86.0 °F

Nearby Weather Stations